Airfield :
LOGIN :

Register | Disclaimer

   EN    FR    IT 

 










Legend :    VFR   Marginal VFR   IFR   Intensive IFR   Very Intensive IFR
Visi :
Ceiling :
>= 8 km
>= 3000ft
5 to 8 km
1000 to 3000 ft
1500m to 5 km
500 to 1000 ft
800 to 1500m
200 to 500 ft
< 800m
< 200 ft
Symbols :   Thunderstorms  Fog  Heavy snow  Heavy precipitations  Wind > 20 kt
SIGMETs :     Misc.  Thunderstorms  Icing  Turbulence  Mountain Waves  Volcanic Ashes






- Airport Elevation : 219 ft
- IATA code : DNR


LFRD - Dinard

CURRENT METAR :
  • 201430Z AUTO 17012KT 9999 SCT025 BKN034 BKN044 19/15 Q1002 TEMPO 16015G25KT SHRA BKN015TCU

EXPIRED METARs :
  • 201400Z AUTO 17012KT 9999 FEW031 BKN050 19/15 Q1002 TEMPO 16015G25KT SHRA BKN015TCU
  • 201330Z AUTO 18013KT 9999 FEW033 OVC054 19/14 Q1002 TEMPO 16015G25KT SHRA BKN015TCU
  • 201300Z AUTO 18015KT 9999 FEW025 SCT030 BKN054 19/14 Q1002 TEMPO 16015G25KT SHRA BKN015TCU
  • 201230Z AUTO 17011KT 9999 FEW029 BKN058 BKN220 19/16 Q1003 TEMPO 16015G25KT SHRA BKN015TCU
  • 201200Z AUTO 18013KT 9999 FEW019 SCT025 BKN052 18/14 Q1003 TEMPO 16015G25KT SHRA BKN015TCU

TAF TAF LFRD
Valid from the 20 at 12:00 until the 21 at 12:00 UTC


201100Z 2012/2112 16010KT 9999 BKN030
PROB30
TEMPO 2012/2018 16015G25KT 5000 SHRA BKN015TCU
BECMG 2020/2022 5000 RA OVC010
TEMPO 2022/2104 2000 RA BKN005
BECMG 2100/2102 10010KT
BECMG 2104/2107 20018G30KT 9999 NSW BKN030
TEMPO 2108/2112 3000 SHRA BKN010CB
BECMG 2109/2112 21010KT
ATIS : +33 2 99 16 81 50



MET'MAP, your aeronautical weather chart ! - Copyright ORBIFLY December 2007 - Disclaimer

ORBIFLY MET'MAP TEAM :

Programming & Development : Alexandra Zaïnal
Concept & original design : Baudouin d'Aumeries
Assistance for programming : Marc-Olivier Méhu
Technical & hardware support : Manuel Goepfert

Contact : metmap@orbifly.com




SOURCES & CREDITS :

   NOAA